Delta, Colorado
Current Conditions -  °F | °C
As of 9:15 AM on Sunday 25 Jan 2015 (Local Time) from KAJZ Reporting Station
Clear Clear  
Wind Chill: 31°   Ceiling: Unl
Heat Index: 31°   Visibility: 10mi
Dew Point: 18°   Wind: 0mph
Humidity: 59%   Direction: NA
Pressure: 30.43"   Gusts: NA
Location:  38.74°N, 108.07°W
Report Text: KAJZ 251615Z AUTO 00000KT 10SM CLR M01/M08 A3043 RMK AO2 T10081079
Loading
Personal Weather Stations






























Interactive Weather Map New forecast layout! Learn more

10-Day Weather Forecast

Advertisements
Track Severe Weather on mobile